sensor_id;sensor_type;location;lat;lon;timestamp;pressure;altitude;pressure_sealevel;temperature
49154;BMP280;49455;52.252;9.124;2022-09-06T06:52:59;99642.81;;;18.68
49154;BMP280;49455;52.252;9.124;2022-09-06T06:58:00;99649.81;;;18.66
49154;BMP280;49455;52.252;9.124;2022-09-06T07:03:00;99654.13;;;18.70
49154;BMP280;49455;52.252;9.124;2022-09-06T07:08:01;99643.69;;;18.63
49154;BMP280;49455;52.252;9.124;2022-09-06T07:13:02;99638.53;;;18.55
49154;BMP280;49455;52.252;9.124;2022-09-06T07:38:46;99657.72;;;18.54
49154;BMP280;49455;52.252;9.124;2022-09-06T07:44:00;99651.53;;;18.67
49154;BMP280;49455;52.252;9.124;2022-09-06T07:49:03;99648.84;;;18.79
49154;BMP280;49455;52.252;9.124;2022-09-06T07:54:04;99646.19;;;18.82
49154;BMP280;49455;52.252;9.124;2022-09-06T07:59:04;99651.44;;;18.91
49154;BMP280;49455;52.252;9.124;2022-09-06T08:04:07;99657.44;;;19.08
49154;BMP280;49455;52.252;9.124;2022-09-06T08:09:09;99665.13;;;19.25
49154;BMP280;49455;52.252;9.124;2022-09-06T08:14:09;99660.66;;;19.40
49154;BMP280;49455;52.252;9.124;2022-09-06T08:19:10;99671.91;;;19.53
49154;BMP280;49455;52.252;9.124;2022-09-06T08:24:10;99668.25;;;19.68
49154;BMP280;49455;52.252;9.124;2022-09-06T08:29:14;99664.75;;;19.72
49154;BMP280;49455;52.252;9.124;2022-09-06T08:34:15;99666.41;;;19.85
49154;BMP280;49455;52.252;9.124;2022-09-06T08:39:15;99667.16;;;19.96
49154;BMP280;49455;52.252;9.124;2022-09-06T08:49:35;99667.47;;;20.45
49154;BMP280;49455;52.252;9.124;2022-09-06T08:54:39;99659.50;;;20.51
49154;BMP280;49455;52.252;9.124;2022-09-06T08:59:40;99657.00;;;20.42
49154;BMP280;49455;52.252;9.124;2022-09-06T09:04:44;99657.25;;;20.22
49154;BMP280;49455;52.252;9.124;2022-09-06T09:09:46;99654.84;;;20.01
49154;BMP280;49455;52.252;9.124;2022-09-06T09:14:50;99651.50;;;19.89
49154;BMP280;49455;52.252;9.124;2022-09-06T09:19:52;99636.66;;;19.88
49154;BMP280;49455;52.252;9.124;2022-09-06T09:24:56;99621.69;;;19.99
49154;BMP280;49455;52.252;9.124;2022-09-06T09:30:00;99611.03;;;20.09
49154;BMP280;49455;52.252;9.124;2022-09-06T09:35:18;99620.41;;;20.29
49154;BMP280;49455;52.252;9.124;2022-09-06T09:41:04;99611.16;;;20.68
49154;BMP280;49455;52.252;9.124;2022-09-06T09:46:16;99607.22;;;20.97
49154;BMP280;49455;52.252;9.124;2022-09-06T09:51:28;99607.66;;;21.24
49154;BMP280;49455;52.252;9.124;2022-09-06T09:56:39;99609.84;;;21.50
49154;BMP280;49455;52.252;9.124;2022-09-06T10:01:41;99592.84;;;22.14
49154;BMP280;49455;52.252;9.124;2022-09-06T10:06:42;99596.22;;;22.61
49154;BMP280;49455;52.252;9.124;2022-09-06T10:11:58;99592.13;;;22.87
49154;BMP280;49455;52.252;9.124;2022-09-06T10:16:59;99589.25;;;22.96
49154;BMP280;49455;52.252;9.124;2022-09-06T10:22:11;99592.31;;;22.77
49154;BMP280;49455;52.252;9.124;2022-09-06T10:27:17;99597.59;;;23.16
49154;BMP280;49455;52.252;9.124;2022-09-06T10:42:58;99584.84;;;23.98
49154;BMP280;49455;52.252;9.124;2022-09-06T10:48:08;99586.72;;;24.25
49154;BMP280;49455;52.252;9.124;2022-09-06T10:58:27;99582.81;;;24.08
49154;BMP280;49455;52.252;9.124;2022-09-06T11:03:41;99581.53;;;23.91
49154;BMP280;49455;52.252;9.124;2022-09-06T11:08:49;99580.09;;;24.41
49154;BMP280;49455;52.252;9.124;2022-09-06T11:13:52;99565.91;;;24.72
49154;BMP280;49455;52.252;9.124;2022-09-06T11:19:06;99568.91;;;25.16
49154;BMP280;49455;52.252;9.124;2022-09-06T11:24:13;99566.53;;;25.59
49154;BMP280;49455;52.252;9.124;2022-09-06T11:29:19;99565.88;;;26.01
49154;BMP280;49455;52.252;9.124;2022-09-06T11:34:32;99563.19;;;26.03
49154;BMP280;49455;52.252;9.124;2022-09-06T11:39:38;99571.13;;;26.49
49154;BMP280;49455;52.252;9.124;2022-09-06T11:45:12;99565.78;;;26.74
49154;BMP280;49455;52.252;9.124;2022-09-06T11:55:30;99560.13;;;27.04
49154;BMP280;49455;52.252;9.124;2022-09-06T12:00:31;99558.25;;;27.48
49154;BMP280;49455;52.252;9.124;2022-09-06T12:05:31;99540.22;;;27.56
49154;BMP280;49455;52.252;9.124;2022-09-06T12:15:51;99545.47;;;27.77
49154;BMP280;49455;52.252;9.124;2022-09-06T12:25:53;99545.78;;;27.89
49154;BMP280;49455;52.252;9.124;2022-09-06T12:30:57;99548.13;;;27.97
49154;BMP280;49455;52.252;9.124;2022-09-06T12:36:17;99545.13;;;27.84
49154;BMP280;49455;52.252;9.124;2022-09-06T12:41:18;99530.09;;;28.23
49154;BMP280;49455;52.252;9.124;2022-09-06T12:46:18;99517.44;;;28.65
49154;BMP280;49455;52.252;9.124;2022-09-06T12:51:19;99517.03;;;28.91
49154;BMP280;49455;52.252;9.124;2022-09-06T12:56:20;99521.84;;;28.28
49154;BMP280;49455;52.252;9.124;2022-09-06T13:01:25;99519.16;;;29.01
49154;BMP280;49455;52.252;9.124;2022-09-06T13:06:29;99515.28;;;28.35
49154;BMP280;49455;52.252;9.124;2022-09-06T13:11:37;99513.13;;;28.43
49154;BMP280;49455;52.252;9.124;2022-09-06T13:16:47;99491.09;;;28.59
49154;BMP280;49455;52.252;9.124;2022-09-06T13:21:48;99484.41;;;29.04
49154;BMP280;49455;52.252;9.124;2022-09-06T13:26:49;99480.41;;;28.96
49154;BMP280;49455;52.252;9.124;2022-09-06T13:31:51;99481.66;;;29.06
49154;BMP280;49455;52.252;9.124;2022-09-06T13:37:01;99467.31;;;28.57
49154;BMP280;49455;52.252;9.124;2022-09-06T13:42:25;99468.00;;;28.78
49154;BMP280;49455;52.252;9.124;2022-09-06T13:47:27;99462.53;;;29.16
49154;BMP280;49455;52.252;9.124;2022-09-06T13:52:27;99453.34;;;29.05
49154;BMP280;49455;52.252;9.124;2022-09-06T13:57:28;99453.94;;;29.45
49154;BMP280;49455;52.252;9.124;2022-09-06T14:02:28;99454.66;;;28.80
49154;BMP280;49455;52.252;9.124;2022-09-06T14:07:28;99461.50;;;28.67
49154;BMP280;49455;52.252;9.124;2022-09-06T14:12:29;99460.91;;;28.42
49154;BMP280;49455;52.252;9.124;2022-09-06T14:17:29;99449.81;;;29.22
49154;BMP280;49455;52.252;9.124;2022-09-06T14:22:30;99457.31;;;28.80
49154;BMP280;49455;52.252;9.124;2022-09-06T14:27:30;99451.44;;;29.25
49154;BMP280;49455;52.252;9.124;2022-09-06T14:32:31;99438.22;;;29.07
49154;BMP280;49455;52.252;9.124;2022-09-06T14:37:32;99437.03;;;29.94
49154;BMP280;49455;52.252;9.124;2022-09-06T14:42:33;99431.88;;;28.91
49154;BMP280;49455;52.252;9.124;2022-09-06T14:47:33;99439.16;;;28.71
49154;BMP280;49455;52.252;9.124;2022-09-06T14:52:34;99435.13;;;29.48
49154;BMP280;49455;52.252;9.124;2022-09-06T14:57:34;99430.13;;;29.08
49154;BMP280;49455;52.252;9.124;2022-09-06T15:02:36;99422.09;;;28.91
49154;BMP280;49455;52.252;9.124;2022-09-06T15:07:36;99421.91;;;28.61
49154;BMP280;49455;52.252;9.124;2022-09-06T15:12:37;99406.97;;;28.75
49154;BMP280;49455;52.252;9.124;2022-09-06T15:17:37;99399.84;;;28.76
49154;BMP280;49455;52.252;9.124;2022-09-06T15:22:37;99391.56;;;28.65
49154;BMP280;49455;52.252;9.124;2022-09-06T15:27:38;99387.81;;;28.69
49154;BMP280;49455;52.252;9.124;2022-09-06T15:32:38;99382.97;;;28.60
49154;BMP280;49455;52.252;9.124;2022-09-06T15:37:38;99377.53;;;28.08
49154;BMP280;49455;52.252;9.124;2022-09-06T15:42:39;99376.38;;;28.67
49154;BMP280;49455;52.252;9.124;2022-09-06T15:47:40;99389.13;;;28.42
49154;BMP280;49455;52.252;9.124;2022-09-06T15:52:40;99384.00;;;28.03
49154;BMP280;49455;52.252;9.124;2022-09-06T15:57:41;99369.53;;;27.90
49154;BMP280;49455;52.252;9.124;2022-09-06T16:02:41;99364.72;;;27.80
49154;BMP280;49455;52.252;9.124;2022-09-06T16:07:41;99353.78;;;27.67
49154;BMP280;49455;52.252;9.124;2022-09-06T16:12:42;99349.16;;;27.54
49154;BMP280;49455;52.252;9.124;2022-09-06T16:17:42;99336.50;;;27.41
49154;BMP280;49455;52.252;9.124;2022-09-06T16:22:43;99341.00;;;27.39
49154;BMP280;49455;52.252;9.124;2022-09-06T16:27:43;99336.34;;;27.24
49154;BMP280;49455;52.252;9.124;2022-09-06T16:32:44;99337.50;;;26.99
49154;BMP280;49455;52.252;9.124;2022-09-06T16:37:44;99342.22;;;26.93
49154;BMP280;49455;52.252;9.124;2022-09-06T16:42:45;99342.63;;;26.63
49154;BMP280;49455;52.252;9.124;2022-09-06T16:47:45;99340.97;;;26.81
49154;BMP280;49455;52.252;9.124;2022-09-06T16:52:45;99332.78;;;26.45
49154;BMP280;49455;52.252;9.124;2022-09-06T16:57:46;99338.69;;;26.09
49154;BMP280;49455;52.252;9.124;2022-09-06T17:02:47;99343.56;;;25.98
49154;BMP280;49455;52.252;9.124;2022-09-06T17:07:47;99335.41;;;25.82
49154;BMP280;49455;52.252;9.124;2022-09-06T17:12:47;99350.31;;;25.37
49154;BMP280;49455;52.252;9.124;2022-09-06T17:17:48;99355.59;;;25.15
49154;BMP280;49455;52.252;9.124;2022-09-06T17:22:49;99345.09;;;24.89
49154;BMP280;49455;52.252;9.124;2022-09-06T17:27:49;99350.72;;;24.79
49154;BMP280;49455;52.252;9.124;2022-09-06T17:32:50;99353.13;;;24.60
49154;BMP280;49455;52.252;9.124;2022-09-06T17:37:50;99350.59;;;24.32
49154;BMP280;49455;52.252;9.124;2022-09-06T17:42:51;99355.28;;;24.23
49154;BMP280;49455;52.252;9.124;2022-09-06T17:47:51;99353.81;;;24.13
49154;BMP280;49455;52.252;9.124;2022-09-06T17:52:52;99354.50;;;23.92
49154;BMP280;49455;52.252;9.124;2022-09-06T17:57:52;99354.44;;;23.94
49154;BMP280;49455;52.252;9.124;2022-09-06T18:02:53;99354.81;;;23.82
49154;BMP280;49455;52.252;9.124;2022-09-06T18:07:53;99357.84;;;23.70
49154;BMP280;49455;52.252;9.124;2022-09-06T18:12:53;99356.41;;;23.59
49154;BMP280;49455;52.252;9.124;2022-09-06T18:17:54;99361.16;;;23.46
49154;BMP280;49455;52.252;9.124;2022-09-06T18:22:55;99362.25;;;23.39
49154;BMP280;49455;52.252;9.124;2022-09-06T18:27:55;99364.09;;;23.37
49154;BMP280;49455;52.252;9.124;2022-09-06T18:32:55;99363.59;;;23.24
49154;BMP280;49455;52.252;9.124;2022-09-06T18:37:56;99360.31;;;23.16
49154;BMP280;49455;52.252;9.124;2022-09-06T18:42:56;99367.66;;;23.05
49154;BMP280;49455;52.252;9.124;2022-09-06T18:47:57;99360.13;;;22.92
49154;BMP280;49455;52.252;9.124;2022-09-06T18:52:57;99355.06;;;22.83
49154;BMP280;49455;52.252;9.124;2022-09-06T18:57:58;99365.88;;;22.73
49154;BMP280;49455;52.252;9.124;2022-09-06T19:02:58;99358.19;;;22.65
49154;BMP280;49455;52.252;9.124;2022-09-06T19:07:58;99365.31;;;22.60
49154;BMP280;49455;52.252;9.124;2022-09-06T19:12:59;99373.41;;;22.53
49154;BMP280;49455;52.252;9.124;2022-09-06T19:17:59;99368.22;;;22.50
49154;BMP280;49455;52.252;9.124;2022-09-06T19:23:00;99372.75;;;22.45
49154;BMP280;49455;52.252;9.124;2022-09-06T19:28:00;99371.16;;;22.38
49154;BMP280;49455;52.252;9.124;2022-09-06T19:33:01;99364.19;;;22.37
49154;BMP280;49455;52.252;9.124;2022-09-06T19:38:01;99365.22;;;22.30
49154;BMP280;49455;52.252;9.124;2022-09-06T19:43:02;99361.03;;;22.23
49154;BMP280;49455;52.252;9.124;2022-09-06T19:48:03;99363.78;;;22.17
49154;BMP280;49455;52.252;9.124;2022-09-06T19:53:04;99360.47;;;22.10
49154;BMP280;49455;52.252;9.124;2022-09-06T19:58:07;99370.22;;;22.05
49154;BMP280;49455;52.252;9.124;2022-09-06T20:03:08;99364.13;;;22.01
49154;BMP280;49455;52.252;9.124;2022-09-06T20:08:08;99345.16;;;21.89
49154;BMP280;49455;52.252;9.124;2022-09-06T20:13:08;99342.53;;;21.89
49154;BMP280;49455;52.252;9.124;2022-09-06T20:18:09;99335.66;;;21.82
49154;BMP280;49455;52.252;9.124;2022-09-06T20:23:10;99339.22;;;21.80
49154;BMP280;49455;52.252;9.124;2022-09-06T20:28:10;99327.00;;;21.77
49154;BMP280;49455;52.252;9.124;2022-09-06T20:33:11;99318.31;;;21.75
49154;BMP280;49455;52.252;9.124;2022-09-06T20:38:11;99313.97;;;21.73
49154;BMP280;49455;52.252;9.124;2022-09-06T20:43:11;99303.47;;;21.73
49154;BMP280;49455;52.252;9.124;2022-09-06T20:48:12;99294.72;;;21.72
49154;BMP280;49455;52.252;9.124;2022-09-06T20:53:12;99297.44;;;21.68
49154;BMP280;49455;52.252;9.124;2022-09-06T20:58:13;99306.31;;;21.62
49154;BMP280;49455;52.252;9.124;2022-09-06T21:03:13;99280.97;;;21.60
49154;BMP280;49455;52.252;9.124;2022-09-06T21:08:14;99278.31;;;21.61
49154;BMP280;49455;52.252;9.124;2022-09-06T21:13:15;99280.09;;;21.59
49154;BMP280;49455;52.252;9.124;2022-09-06T21:18:15;99283.66;;;21.58
49154;BMP280;49455;52.252;9.124;2022-09-06T21:23:15;99297.66;;;21.57
49154;BMP280;49455;52.252;9.124;2022-09-06T21:28:16;99293.31;;;21.56
49154;BMP280;49455;52.252;9.124;2022-09-06T21:33:16;99286.38;;;21.52
49154;BMP280;49455;52.252;9.124;2022-09-06T21:38:17;99300.47;;;21.50
49154;BMP280;49455;52.252;9.124;2022-09-06T21:43:17;99297.16;;;21.42
49154;BMP280;49455;52.252;9.124;2022-09-06T21:48:18;99275.31;;;21.39
49154;BMP280;49455;52.252;9.124;2022-09-06T21:53:18;99274.38;;;21.43
49154;BMP280;49455;52.252;9.124;2022-09-06T21:58:19;99276.91;;;21.46
49154;BMP280;49455;52.252;9.124;2022-09-06T22:03:19;99282.91;;;21.52
49154;BMP280;49455;52.252;9.124;2022-09-06T22:08:20;99282.09;;;21.49
49154;BMP280;49455;52.252;9.124;2022-09-06T22:13:21;99280.44;;;21.45
49154;BMP280;49455;52.252;9.124;2022-09-06T22:18:21;99280.63;;;21.37
49154;BMP280;49455;52.252;9.124;2022-09-06T22:23:21;99283.34;;;21.33
49154;BMP280;49455;52.252;9.124;2022-09-06T22:28:22;99276.50;;;21.24
49154;BMP280;49455;52.252;9.124;2022-09-06T22:33:23;99268.75;;;21.17
49154;BMP280;49455;52.252;9.124;2022-09-06T22:38:23;99267.19;;;21.10
49154;BMP280;49455;52.252;9.124;2022-09-06T22:43:24;99265.41;;;21.11
49154;BMP280;49455;52.252;9.124;2022-09-06T22:48:24;99270.81;;;21.03
49154;BMP280;49455;52.252;9.124;2022-09-06T22:53:25;99262.22;;;20.95
49154;BMP280;49455;52.252;9.124;2022-09-06T22:58:26;99259.72;;;20.91
49154;BMP280;49455;52.252;9.124;2022-09-06T23:03:26;99259.72;;;20.90
49154;BMP280;49455;52.252;9.124;2022-09-06T23:08:27;99251.06;;;20.86
49154;BMP280;49455;52.252;9.124;2022-09-06T23:13:28;99251.06;;;20.86
49154;BMP280;49455;52.252;9.124;2022-09-06T23:18:28;99243.09;;;20.89
49154;BMP280;49455;52.252;9.124;2022-09-06T23:23:29;99235.25;;;20.88
49154;BMP280;49455;52.252;9.124;2022-09-06T23:28:29;99227.13;;;20.99
49154;BMP280;49455;52.252;9.124;2022-09-06T23:33:30;99214.75;;;21.04
49154;BMP280;49455;52.252;9.124;2022-09-06T23:38:32;99219.13;;;21.04
49154;BMP280;49455;52.252;9.124;2022-09-06T23:43:32;99213.00;;;21.03
